createdAt,value
2022-11-26T00:00:25.702Z,70.04
2022-11-26T00:02:59.286Z,70.01
2022-11-26T00:05:34.481Z,70.04
2022-11-26T00:08:12.874Z,70.02
2022-11-26T00:10:46.565Z,69.98
2022-11-26T00:13:22.420Z,70.11
2022-11-26T00:15:56.874Z,70.32
2022-11-26T00:18:30.687Z,70.31
2022-11-26T00:21:04.459Z,70.33
2022-11-26T00:23:38.960Z,70.38
2022-11-26T00:26:15.768Z,70.39
2022-11-26T00:28:54.157Z,70.37
2022-11-26T00:31:28.421Z,70.37
2022-11-26T00:34:02.091Z,70.29
2022-11-26T00:36:35.922Z,70.35
2022-11-26T00:39:12.686Z,70.26
2022-11-26T00:41:50.309Z,70.29
2022-11-26T00:44:25.661Z,70.33
2022-11-26T00:46:59.190Z,70.41
2022-11-26T00:49:32.923Z,70.41
2022-11-26T00:52:08.153Z,70.37
2022-11-26T00:54:42.010Z,70.32
2022-11-26T00:57:15.561Z,70.34
2022-11-26T00:59:49.094Z,70.31
2022-11-26T01:02:22.732Z,70.33
2022-11-26T01:04:56.186Z,70.35
2022-11-26T01:07:29.727Z,70.39
2022-11-26T01:10:03.257Z,70.37
2022-11-26T01:12:36.827Z,70.33
2022-11-26T01:15:12.246Z,70.33
2022-11-26T01:17:46.288Z,70.35
2022-11-26T01:20:27.326Z,70.29
2022-11-26T01:23:01.474Z,70.32
2022-11-26T01:25:35.153Z,70.31
2022-11-26T01:28:11.867Z,70.36
2022-11-26T01:30:45.712Z,70.39
2022-11-26T01:33:19.313Z,70.35
2022-11-26T01:35:53.568Z,70.42
2022-11-26T01:38:27.274Z,70.46
2022-11-26T01:41:14.068Z,70.45
2022-11-26T01:43:49.418Z,70.52
2022-11-26T01:46:23.410Z,70.56
2022-11-26T01:49:16.401Z,70.56
2022-11-26T01:51:52.344Z,70.82
2022-11-26T01:54:26.281Z,70.82
2022-11-26T01:57:02.461Z,70.78
2022-11-26T01:59:38.880Z,70.68
2022-11-26T02:02:12.556Z,70.68
2022-11-26T02:04:48.758Z,70.72
2022-11-26T02:07:22.382Z,70.77
2022-11-26T02:09:56.108Z,70.73
2022-11-26T02:12:30.175Z,70.57
2022-11-26T02:15:03.734Z,70.61
2022-11-26T02:17:40.142Z,70.59
2022-11-26T02:20:37.625Z,70.50
2022-11-26T02:23:33.079Z,70.61
2022-11-26T02:26:42.099Z,70.67
2022-11-26T02:29:25.264Z,70.70
2022-11-26T02:32:03.624Z,70.76
2022-11-26T02:34:40.806Z,70.91
2022-11-26T02:37:17.038Z,70.78
2022-11-26T02:39:50.524Z,70.78
2022-11-26T02:42:27.314Z,70.81
2022-11-26T02:45:04.116Z,70.80
2022-11-26T02:47:39.164Z,70.89
2022-11-26T02:50:15.602Z,70.91
2022-11-26T02:52:52.010Z,70.83
2022-11-26T02:55:28.276Z,70.77
2022-11-26T02:58:03.128Z,70.71
2022-11-26T03:00:39.210Z,70.79
2022-11-26T03:03:17.295Z,70.79
2022-11-26T03:05:52.069Z,70.79
2022-11-26T03:08:26.659Z,70.75
2022-11-26T03:11:00.701Z,70.72
2022-11-26T03:13:34.402Z,70.75
2022-11-26T03:16:08.834Z,70.88
2022-11-26T03:18:42.498Z,70.95
2022-11-26T03:21:15.926Z,70.82
2022-11-26T03:23:49.403Z,70.70
2022-11-26T03:26:22.801Z,70.70
2022-11-26T03:28:56.309Z,70.74
2022-11-26T03:31:29.578Z,70.69
2022-11-26T03:34:03.265Z,70.70
2022-11-26T03:36:36.620Z,70.79
2022-11-26T03:39:10.283Z,70.83
2022-11-26T03:41:44.409Z,70.87
2022-11-26T03:44:17.691Z,70.88
2022-11-26T03:46:51.073Z,70.86
2022-11-26T03:49:24.515Z,70.83
2022-11-26T03:51:58.022Z,70.99
2022-11-26T03:54:31.960Z,70.98
2022-11-26T03:57:05.524Z,70.92
2022-11-26T03:59:39.259Z,70.93
2022-11-26T04:02:12.657Z,70.92
2022-11-26T04:04:45.940Z,70.82
2022-11-26T04:07:19.512Z,70.88
2022-11-26T04:09:52.948Z,70.87
2022-11-26T04:12:26.184Z,70.95
2022-11-26T04:14:59.765Z,71.00
2022-11-26T04:17:35.009Z,71.22
2022-11-26T04:20:10.984Z,71.18
2022-11-26T04:22:44.410Z,71.22
2022-11-26T04:25:17.745Z,71.05
2022-11-26T04:27:51.152Z,71.03
2022-11-26T04:30:24.706Z,71.09
2022-11-26T04:32:58.035Z,71.10
2022-11-26T04:35:31.555Z,71.11
2022-11-26T04:38:05.150Z,71.11
2022-11-26T04:40:38.749Z,71.13
2022-11-26T04:43:12.357Z,71.04
2022-11-26T04:45:46.008Z,71.05
2022-11-26T04:48:19.622Z,71.11
2022-11-26T04:50:52.951Z,71.10
2022-11-26T04:53:26.814Z,71.15
2022-11-26T04:56:00.287Z,71.15
2022-11-26T04:58:33.961Z,71.11
2022-11-26T05:01:07.568Z,71.11
2022-11-26T05:03:41.009Z,71.18
2022-11-26T05:06:14.562Z,71.28
2022-11-26T05:08:51.070Z,71.27
2022-11-26T05:11:25.495Z,71.28
2022-11-26T05:13:59.131Z,71.14
2022-11-26T05:16:32.564Z,71.09
2022-11-26T05:19:06.058Z,71.10
2022-11-26T05:21:39.565Z,71.10
2022-11-26T05:24:12.874Z,71.28
2022-11-26T05:26:48.505Z,71.25
2022-11-26T05:29:22.202Z,71.08
2022-11-26T05:31:55.866Z,71.09
2022-11-26T05:34:29.409Z,71.17
2022-11-26T05:37:02.764Z,71.11
2022-11-26T05:39:36.171Z,71.09
2022-11-26T05:42:09.808Z,70.96
2022-11-26T05:44:43.142Z,70.97
2022-11-26T05:47:16.854Z,70.95
2022-11-26T05:49:50.394Z,70.96
2022-11-26T05:52:23.814Z,70.84
2022-11-26T05:54:56.989Z,70.86
2022-11-26T05:57:30.492Z,70.91
2022-11-26T06:00:04.082Z,70.89
2022-11-26T06:02:39.456Z,70.81
2022-11-26T06:05:13.357Z,70.75
2022-11-26T06:07:46.580Z,70.71
2022-11-26T06:10:20.790Z,70.67
2022-11-26T06:12:54.719Z,70.57
2022-11-26T06:15:28.084Z,70.62
2022-11-26T06:18:01.590Z,70.69
2022-11-26T06:20:46.214Z,70.66
2022-11-26T06:23:20.371Z,70.54
2022-11-26T06:25:53.947Z,70.58
2022-11-26T06:28:27.536Z,70.72
2022-11-26T06:31:01.428Z,70.69
2022-11-26T06:33:35.322Z,70.65
2022-11-26T06:36:09.371Z,70.53
2022-11-26T06:38:42.762Z,70.48
2022-11-26T06:41:16.034Z,70.59
2022-11-26T06:43:49.410Z,70.69
2022-11-26T06:46:23.148Z,70.71
2022-11-26T06:48:56.997Z,70.59
2022-11-26T06:51:30.432Z,70.48
2022-11-26T06:54:04.167Z,70.57
2022-11-26T06:56:37.683Z,70.48
2022-11-26T06:59:11.452Z,70.49
2022-11-26T07:01:45.088Z,70.41
2022-11-26T07:04:18.512Z,70.44
2022-11-26T07:06:52.381Z,70.43
2022-11-26T07:09:25.928Z,70.40
2022-11-26T07:11:59.509Z,70.55
2022-11-26T07:14:33.480Z,70.54
2022-11-26T07:17:08.215Z,70.58
2022-11-26T07:19:42.050Z,70.57
2022-11-26T07:22:15.482Z,70.57
2022-11-26T07:24:48.915Z,70.49
2022-11-26T07:30:01.950Z,70.31
2022-11-26T07:32:35.381Z,70.46
2022-11-26T07:35:10.326Z,70.49
2022-11-26T07:37:43.811Z,70.47
2022-11-26T07:40:18.662Z,70.42
2022-11-26T07:42:53.419Z,70.31
2022-11-26T07:45:28.878Z,70.42
2022-11-26T07:48:02.017Z,70.43
2022-11-26T07:50:35.158Z,70.34
2022-11-26T07:53:08.344Z,70.29
2022-11-26T07:55:42.652Z,70.25
2022-11-26T07:58:16.126Z,70.24
2022-11-26T08:00:54.405Z,70.24
2022-11-26T08:03:24.670Z,70.21
2022-11-26T08:05:58.049Z,70.21
2022-11-26T08:08:31.566Z,70.21
2022-11-26T08:11:08.863Z,70.24
2022-11-26T08:13:42.440Z,70.29
2022-11-26T08:16:16.446Z,70.18
2022-11-26T08:18:50.003Z,70.13
2022-11-26T08:21:23.407Z,70.11
2022-11-26T08:23:56.911Z,70.19
2022-11-26T08:26:35.959Z,70.21
2022-11-26T08:29:05.721Z,70.08
2022-11-26T08:31:45.164Z,70.07
2022-11-26T08:34:17.437Z,70.14
2022-11-26T08:36:50.904Z,70.11
2022-11-26T08:39:24.561Z,70.02
2022-11-26T08:41:58.051Z,70.09
2022-11-26T08:44:31.446Z,70.15
2022-11-26T08:47:04.776Z,70.05
2022-11-26T08:49:38.303Z,70.08
2022-11-26T08:52:11.716Z,70.00
2022-11-26T08:54:45.907Z,69.94
2022-11-26T08:57:19.824Z,70.07
2022-11-26T08:59:55.293Z,70.16
2022-11-26T09:02:28.877Z,70.09
2022-11-26T09:05:02.479Z,70.04
2022-11-26T09:07:36.075Z,69.93
2022-11-26T09:10:12.084Z,69.96
2022-11-26T09:12:45.632Z,69.91
2022-11-26T09:15:19.793Z,70.01
2022-11-26T09:17:53.337Z,70.02
2022-11-26T09:20:29.624Z,70.09
2022-11-26T09:23:03.339Z,69.91
2022-11-26T09:25:38.212Z,70.03
2022-11-26T09:28:11.836Z,70.07
2022-11-26T09:30:45.306Z,70.06
2022-11-26T09:33:18.883Z,69.83
2022-11-26T09:35:52.265Z,69.82
2022-11-26T09:38:25.934Z,70.00
2022-11-26T09:41:02.073Z,70.06
2022-11-26T09:43:37.087Z,70.06
2022-11-26T09:46:13.159Z,70.05
2022-11-26T09:48:46.863Z,69.92
2022-11-26T09:51:20.706Z,69.83
2022-11-26T09:53:55.962Z,69.79
2022-11-26T09:56:30.088Z,69.84
2022-11-26T09:59:06.615Z,69.94
2022-11-26T10:01:41.959Z,69.71
2022-11-26T10:04:19.492Z,69.82
2022-11-26T10:06:56.267Z,69.91
2022-11-26T10:09:44.675Z,70.02
2022-11-26T10:12:25.793Z,69.94
2022-11-26T10:15:03.464Z,69.89
2022-11-26T10:17:43.967Z,69.84
2022-11-26T10:20:32.959Z,69.80
2022-11-26T10:23:10.008Z,69.83
2022-11-26T10:25:46.328Z,69.81
2022-11-26T10:28:23.552Z,69.89
2022-11-26T10:30:59.891Z,69.90
2022-11-26T10:33:36.217Z,69.87
2022-11-26T10:36:13.158Z,69.92
2022-11-26T10:38:46.628Z,69.83
2022-11-26T10:41:20.871Z,69.85
2022-11-26T10:43:54.282Z,69.73
2022-11-26T10:46:36.698Z,69.78
2022-11-26T10:49:24.890Z,69.85
2022-11-26T10:52:01.827Z,69.85
2022-11-26T10:54:36.486Z,69.93
2022-11-26T10:57:17.009Z,69.84
2022-11-26T10:59:53.980Z,69.91
2022-11-26T11:02:37.390Z,69.90
2022-11-26T11:05:12.208Z,69.78
2022-11-26T11:07:45.768Z,69.80
2022-11-26T11:10:24.294Z,69.96
2022-11-26T11:13:13.353Z,69.83
2022-11-26T11:15:47.187Z,69.91
2022-11-26T11:18:23.373Z,69.86
2022-11-26T11:20:59.537Z,69.87
2022-11-26T11:24:06.401Z,69.81
2022-11-26T11:26:14.465Z,69.79
2022-11-26T11:28:51.707Z,69.78
2022-11-26T11:31:26.819Z,69.90
2022-11-26T11:34:21.738Z,69.82
2022-11-26T11:37:10.566Z,69.77
2022-11-26T11:39:45.643Z,69.87
2022-11-26T11:42:23.364Z,69.86
2022-11-26T11:44:56.348Z,69.86
2022-11-26T11:47:35.950Z,69.88
2022-11-26T11:50:24.160Z,69.79
2022-11-26T11:53:03.055Z,69.75
2022-11-26T11:55:49.869Z,69.73
2022-11-26T11:59:17.522Z,69.65
2022-11-26T12:01:57.799Z,69.80
2022-11-26T12:04:59.316Z,69.95
2022-11-26T12:07:43.418Z,69.98
2022-11-26T12:10:20.481Z,70.00
2022-11-26T12:12:56.552Z,69.99
2022-11-26T12:15:33.091Z,70.03
2022-11-26T12:18:10.326Z,70.18
2022-11-26T12:20:48.638Z,70.25
2022-11-26T12:23:31.475Z,70.25
2022-11-26T12:26:08.961Z,70.25
2022-11-26T12:28:51.167Z,70.26
2022-11-26T12:31:23.983Z,70.23
2022-11-26T12:34:04.200Z,70.36
2022-11-26T12:36:38.648Z,70.35
2022-11-26T12:39:17.396Z,70.39
2022-11-26T12:41:54.591Z,70.41
2022-11-26T12:44:31.806Z,70.49
2022-11-26T12:47:10.291Z,70.46
2022-11-26T12:49:46.818Z,70.55
2022-11-26T12:52:28.098Z,70.53
2022-11-26T12:55:06.247Z,70.49
2022-11-26T12:57:43.153Z,70.42
2022-11-26T13:00:25.667Z,70.50
2022-11-26T13:02:56.835Z,70.57
2022-11-26T13:05:33.582Z,70.58
2022-11-26T13:08:15.602Z,70.59
2022-11-26T13:11:09.996Z,70.57
2022-11-26T13:13:47.786Z,70.64
2022-11-26T13:16:26.740Z,70.68
2022-11-26T13:19:06.743Z,70.61
2022-11-26T13:21:54.586Z,70.57
2022-11-26T13:24:38.656Z,70.62
2022-11-26T13:27:20.925Z,70.67
2022-11-26T13:33:20.021Z,70.70
2022-11-26T13:39:23.611Z,70.68
2022-11-26T13:42:23.832Z,70.64
2022-11-26T13:45:19.319Z,70.71
2022-11-26T13:47:56.127Z,70.74
2022-11-26T13:50:33.516Z,70.68
2022-11-26T13:53:09.815Z,70.65
2022-11-26T13:55:47.681Z,70.72
2022-11-26T13:58:25.359Z,70.82
2022-11-26T14:00:57.699Z,70.79
2022-11-26T14:03:48.797Z,70.78
2022-11-26T14:06:22.264Z,70.57
2022-11-26T14:08:56.666Z,70.66
2022-11-26T14:14:47.978Z,70.88
2022-11-26T14:17:29.912Z,72.30
2022-11-26T14:20:12.484Z,71.91
2022-11-26T14:22:46.270Z,71.52
2022-11-26T14:25:21.449Z,71.26
2022-11-26T14:27:57.581Z,71.09
2022-11-26T14:30:32.665Z,70.76
2022-11-26T14:33:27.092Z,70.67
2022-11-26T14:36:00.772Z,70.65
2022-11-26T14:38:35.418Z,70.71
2022-11-26T14:41:08.789Z,70.77
2022-11-26T14:43:42.363Z,70.69
2022-11-26T14:46:20.044Z,70.64
2022-11-26T14:48:55.046Z,70.67
2022-11-26T14:51:28.944Z,70.62
2022-11-26T14:54:03.044Z,70.56
2022-11-26T14:56:41.826Z,70.60
2022-11-26T14:59:17.911Z,70.65
2022-11-26T15:01:51.117Z,70.55
2022-11-26T15:04:29.343Z,70.71
2022-11-26T15:07:02.851Z,70.65
2022-11-26T15:09:36.365Z,70.72
2022-11-26T15:12:13.988Z,70.64
2022-11-26T15:14:49.310Z,70.63
2022-11-26T15:17:25.047Z,70.67
2022-11-26T15:20:01.982Z,70.79
2022-11-26T15:22:39.276Z,70.81
2022-11-26T15:25:18.365Z,70.92
2022-11-26T15:28:00.577Z,70.85
2022-11-26T15:30:35.959Z,70.85
2022-11-26T15:33:15.463Z,70.90
2022-11-26T15:35:52.588Z,70.73
2022-11-26T15:38:27.753Z,70.82
2022-11-26T15:41:03.292Z,70.81
2022-11-26T15:43:39.352Z,70.86
2022-11-26T15:46:18.659Z,70.80
2022-11-26T15:48:56.237Z,70.84
2022-11-26T15:51:36.127Z,70.78
2022-11-26T15:54:19.415Z,70.86
2022-11-26T15:56:56.901Z,70.79
2022-11-26T15:59:33.786Z,70.69
2022-11-26T16:02:12.612Z,70.69
2022-11-26T16:04:52.082Z,70.77
2022-11-26T16:07:27.974Z,70.85
2022-11-26T16:10:23.715Z,70.80
2022-11-26T16:16:14.430Z,70.81
2022-11-26T16:18:54.200Z,70.90
2022-11-26T16:21:30.762Z,70.91
2022-11-26T16:24:07.280Z,71.04
2022-11-26T16:26:57.685Z,71.00
2022-11-26T16:29:33.382Z,70.89
2022-11-26T16:32:08.450Z,70.91
2022-11-26T16:34:42.843Z,70.93
2022-11-26T16:37:22.744Z,70.80
2022-11-26T16:40:02.633Z,70.77
2022-11-26T16:42:37.013Z,70.80
2022-11-26T16:45:13.929Z,70.87
2022-11-26T16:47:51.438Z,70.94
2022-11-26T16:50:28.169Z,70.81
2022-11-26T16:53:02.462Z,70.87
2022-11-26T16:55:37.595Z,70.85
2022-11-26T16:58:17.827Z,70.86
2022-11-26T17:00:52.144Z,70.80
2022-11-26T17:03:29.661Z,70.83
2022-11-26T17:06:03.563Z,70.81
2022-11-26T17:08:37.323Z,70.77
2022-11-26T17:11:14.589Z,70.68
2022-11-26T17:13:48.780Z,70.48
2022-11-26T17:16:26.268Z,70.42
2022-11-26T17:18:59.198Z,70.54
2022-11-26T17:21:33.138Z,70.69
2022-11-26T17:24:08.927Z,70.75
2022-11-26T17:26:44.524Z,70.87
2022-11-26T17:29:18.625Z,70.69
2022-11-26T17:31:52.268Z,70.72
2022-11-26T17:34:25.640Z,70.76
2022-11-26T17:37:00.680Z,70.76
2022-11-26T17:39:35.250Z,70.80
2022-11-26T17:42:09.539Z,70.77
2022-11-26T17:44:42.793Z,70.72
2022-11-26T17:47:19.201Z,70.78
2022-11-26T17:49:53.873Z,70.84
2022-11-26T17:52:27.434Z,70.92
2022-11-26T17:55:01.165Z,70.99
2022-11-26T17:57:38.191Z,70.77
2022-11-26T18:00:17.811Z,70.79
2022-11-26T18:02:52.871Z,70.91
2022-11-26T18:05:26.901Z,70.87
2022-11-26T18:08:00.643Z,70.80
2022-11-26T18:10:34.756Z,70.76
2022-11-26T18:13:09.140Z,70.82
2022-11-26T18:15:42.315Z,70.87
2022-11-26T18:18:16.015Z,70.79
2022-11-26T18:20:49.813Z,70.77
2022-11-26T18:23:23.164Z,70.68
2022-11-26T18:25:56.795Z,70.70
2022-11-26T18:28:30.272Z,70.69
2022-11-26T18:31:04.051Z,70.58
2022-11-26T18:33:37.734Z,70.63
2022-11-26T18:36:12.339Z,70.62
2022-11-26T18:38:46.051Z,70.55
2022-11-26T18:41:20.035Z,70.45
2022-11-26T18:43:53.671Z,70.43
2022-11-26T18:46:27.686Z,70.46
2022-11-26T18:49:01.115Z,70.40
2022-11-26T18:51:34.442Z,70.41
2022-11-26T18:54:08.333Z,70.38
2022-11-26T18:56:41.917Z,70.32
2022-11-26T18:59:16.271Z,70.26
2022-11-26T19:01:50.822Z,70.22
2022-11-26T19:04:24.367Z,70.29
2022-11-26T19:06:57.849Z,70.38
2022-11-26T19:09:31.663Z,70.23
2022-11-26T19:12:05.374Z,70.16
2022-11-26T19:14:40.098Z,70.22
2022-11-26T19:17:14.193Z,70.19
2022-11-26T19:19:48.411Z,70.18
2022-11-26T19:22:22.770Z,70.18
2022-11-26T19:24:56.813Z,70.15
2022-11-26T19:27:30.990Z,70.13
2022-11-26T19:30:06.439Z,70.10
2022-11-26T19:32:39.718Z,70.10
2022-11-26T19:35:14.053Z,70.04
2022-11-26T19:37:47.465Z,70.03
2022-11-26T19:40:21.320Z,69.97
2022-11-26T19:42:55.024Z,69.95
2022-11-26T19:45:28.363Z,69.94
2022-11-26T19:48:02.620Z,69.85
2022-11-26T19:50:36.895Z,69.94
2022-11-26T19:53:11.227Z,70.05
2022-11-26T19:55:44.967Z,70.06
2022-11-26T19:58:18.670Z,70.08
2022-11-26T20:00:52.476Z,69.94
2022-11-26T20:03:30.782Z,69.98
2022-11-26T20:06:06.123Z,70.05
2022-11-26T20:08:40.218Z,70.08
2022-11-26T20:11:14.320Z,70.09
2022-11-26T20:13:49.359Z,70.14
2022-11-26T20:16:25.338Z,70.17
2022-11-26T20:19:00.585Z,70.17
2022-11-26T20:21:35.522Z,70.20
2022-11-26T20:24:13.868Z,70.14
2022-11-26T20:26:50.065Z,70.15
2022-11-26T20:29:25.341Z,70.19
2022-11-26T20:31:59.545Z,70.17
2022-11-26T20:34:33.779Z,70.19
2022-11-26T20:37:07.548Z,70.12
2022-11-26T20:39:42.427Z,70.12
2022-11-26T20:42:16.786Z,70.10
2022-11-26T20:44:50.056Z,70.17
2022-11-26T20:47:24.292Z,70.20
2022-11-26T20:49:58.183Z,70.18
2022-11-26T20:52:32.242Z,70.21
2022-11-26T20:55:07.605Z,70.17
2022-11-26T20:57:41.723Z,70.08
2022-11-26T21:00:20.437Z,70.00
2022-11-26T21:02:56.628Z,70.11
2022-11-26T21:05:29.982Z,70.18
2022-11-26T21:08:03.582Z,70.13
2022-11-26T21:10:37.049Z,70.17
2022-11-26T21:13:11.902Z,70.19
2022-11-26T21:15:47.434Z,70.19
2022-11-26T21:18:20.911Z,70.21
2022-11-26T21:20:55.105Z,70.23
2022-11-26T21:23:28.918Z,70.13
2022-11-26T21:26:07.370Z,70.10
2022-11-26T21:28:40.834Z,70.05
2022-11-26T21:31:17.844Z,70.14
2022-11-26T21:33:56.729Z,70.23
2022-11-26T21:36:31.536Z,70.22
2022-11-26T21:39:06.554Z,70.14
2022-11-26T21:41:39.969Z,70.24
2022-11-26T21:44:14.008Z,70.31
2022-11-26T21:46:47.377Z,70.24
2022-11-26T21:49:23.551Z,70.20
2022-11-26T21:51:56.914Z,70.20
2022-11-26T21:54:30.170Z,70.18
2022-11-26T21:57:03.453Z,70.20
2022-11-26T21:59:37.194Z,70.25
2022-11-26T22:02:13.351Z,70.24
2022-11-26T22:04:46.685Z,70.28
2022-11-26T22:07:20.839Z,70.37
2022-11-26T22:09:54.625Z,70.27
2022-11-26T22:12:29.415Z,70.33
2022-11-26T22:15:02.820Z,70.30
2022-11-26T22:17:36.255Z,70.38
2022-11-26T22:20:12.417Z,70.35
2022-11-26T22:22:45.926Z,70.34
2022-11-26T22:25:19.706Z,70.33
2022-11-26T22:27:53.322Z,70.43
2022-11-26T22:30:26.701Z,70.49
2022-11-26T22:33:01.678Z,70.50
2022-11-26T22:35:35.561Z,70.50
2022-11-26T22:38:08.861Z,70.42
2022-11-26T22:40:42.431Z,70.36
2022-11-26T22:43:15.870Z,70.41
2022-11-26T22:45:49.615Z,70.38
2022-11-26T22:48:23.215Z,70.44
2022-11-26T22:50:57.352Z,70.41
2022-11-26T22:53:31.537Z,70.38
2022-11-26T22:56:05.784Z,70.37
2022-11-26T22:58:39.290Z,70.44
2022-11-26T23:01:17.500Z,70.47
2022-11-26T23:03:52.609Z,70.41
2022-11-26T23:06:28.119Z,70.41
2022-11-26T23:09:03.459Z,70.36
2022-11-26T23:11:39.260Z,70.39
2022-11-26T23:14:12.794Z,70.41
2022-11-26T23:16:46.439Z,70.44
2022-11-26T23:19:20.218Z,70.38
2022-11-26T23:21:53.296Z,70.44
2022-11-26T23:24:28.263Z,70.33
2022-11-26T23:27:01.959Z,70.40
2022-11-26T23:29:36.302Z,70.50
2022-11-26T23:32:09.794Z,70.51
2022-11-26T23:34:43.317Z,70.40
2022-11-26T23:37:16.603Z,70.33
2022-11-26T23:39:49.935Z,70.39
2022-11-26T23:42:24.643Z,70.44
2022-11-26T23:44:58.110Z,70.50
2022-11-26T23:47:31.458Z,70.47
2022-11-26T23:50:05.035Z,70.52
2022-11-26T23:52:38.571Z,70.48
2022-11-26T23:55:12.723Z,70.45
2022-11-26T23:57:46.053Z,70.41
